Airfield :
LOGIN :

Register | Disclaimer

   EN    FR    IT 

 










Legend :    VFR   Marginal VFR   IFR   Intensive IFR   Very Intensive IFR
Visi :
Ceiling :
>= 8 km
>= 3000ft
5 to 8 km
1000 to 3000 ft
1500m to 5 km
500 to 1000 ft
800 to 1500m
200 to 500 ft
< 800m
< 200 ft
Symbols :   Thunderstorms  Fog  Heavy snow  Heavy precipitations  Wind > 20 kt
SIGMETs :     Misc.  Thunderstorms  Icing  Turbulence  Mountain Waves  Volcanic Ashes






- Airport Elevation : 197 ft
- IATA code : XOG


LFMO - Orange

CURRENT METAR :
  • 170630Z AUTO 35019G30KT CAVOK 05/M01 Q1030 NOSIG

EXPIRED METARs :
  • 170600Z AUTO 34015KT CAVOK 05/M01 Q1030 BECMG 35020G35KT
  • 170530Z AUTO 34015KT CAVOK 05/M01 Q1030 BECMG 35020G35KT
  • 170500Z AUTO 33014KT CAVOK 05/M01 Q1030 BECMG 35020G35KT
  • 170430Z AUTO 32011KT 290V350 CAVOK 05/M02 Q1030 BECMG 35020G35KT
  • 170400Z AUTO 29007KT 250V350 CAVOK 05/M02 Q1030 BECMG 35020G35KT

TAF TAF LFMO
Valid from the 17 at 03:00 until the 18 at 03:00 UTC


170200Z 1703/1803 35020G35KT CAVOK TX08/1714Z TN04/1703Z



MET'MAP, your aeronautical weather chart ! - Copyright ORBIFLY December 2007 - Disclaimer

ORBIFLY MET'MAP TEAM :

Programming & Development : Alexandra Zaïnal
Concept & original design : Baudouin d'Aumeries
Assistance for programming : Marc-Olivier Méhu
Technical & hardware support : Manuel Goepfert

Contact : metmap@orbifly.com




SOURCES & CREDITS :

   NOAA